sensor_id;sensor_type;location;lat;lon;timestamp;pressure;altitude;pressure_sealevel;temperature;humidity
54146;BME280;65909;49.422;7.738;2023-02-02T00:00:55;77016.88;;;-145.25;76.07
54146;BME280;65909;49.422;7.738;2023-02-02T00:03:21;77024.88;;;-145.25;76.38
54146;BME280;65909;49.422;7.738;2023-02-02T00:05:47;77042.94;;;-145.25;77.08
54146;BME280;65909;49.422;7.738;2023-02-02T00:08:14;77036.91;;;-145.25;77.00
54146;BME280;65909;49.422;7.738;2023-02-02T00:10:40;77028.91;;;-145.25;76.57
54146;BME280;65909;49.422;7.738;2023-02-02T00:13:05;77024.88;;;-145.25;76.94
54146;BME280;65909;49.422;7.738;2023-02-02T00:15:30;77038.94;;;-145.25;76.82
54146;BME280;65909;49.422;7.738;2023-02-02T00:17:56;77030.91;;;-145.25;76.48
54146;BME280;65909;49.422;7.738;2023-02-02T00:20:21;77026.91;;;-145.25;76.88
54146;BME280;65909;49.422;7.738;2023-02-02T00:22:48;77010.84;;;-145.25;76.43
54146;BME280;65909;49.422;7.738;2023-02-02T00:25:13;77020.88;;;-145.25;76.62
54146;BME280;65909;49.422;7.738;2023-02-02T00:27:39;77038.94;;;-145.25;77.06
54146;BME280;65909;49.422;7.738;2023-02-02T00:30:05;77026.91;;;-145.25;77.29
54146;BME280;65909;49.422;7.738;2023-02-02T00:32:31;77034.91;;;-145.25;77.28
54146;BME280;65909;49.422;7.738;2023-02-02T00:34:56;77030.91;;;-145.25;77.21
54146;BME280;65909;49.422;7.738;2023-02-02T00:37:21;77044.94;;;-145.25;78.13
54146;BME280;65909;49.422;7.738;2023-02-02T00:39:47;77042.94;;;-145.25;77.57
54146;BME280;65909;49.422;7.738;2023-02-02T00:42:12;77040.94;;;-145.25;77.09
54146;BME280;65909;49.422;7.738;2023-02-02T00:44:37;77046.94;;;-145.25;77.58
54146;BME280;65909;49.422;7.738;2023-02-02T00:47:21;77042.94;;;-145.25;77.92
54146;BME280;65909;49.422;7.738;2023-02-02T00:49:47;77048.94;;;-145.25;77.37
54146;BME280;65909;49.422;7.738;2023-02-02T00:52:12;77052.97;;;-145.25;77.63
54146;BME280;65909;49.422;7.738;2023-02-02T00:54:38;77069.00;;;-145.25;78.65
54146;BME280;65909;49.422;7.738;2023-02-02T00:57:04;77083.03;;;-145.25;79.14
54146;BME280;65909;49.422;7.738;2023-02-02T00:59:29;77077.03;;;-145.25;79.49
54146;BME280;65909;49.422;7.738;2023-02-02T01:01:54;77095.06;;;-145.25;80.35
54146;BME280;65909;49.422;7.738;2023-02-02T01:04:20;77097.06;;;-145.25;80.85
54146;BME280;65909;49.422;7.738;2023-02-02T01:06:45;77101.09;;;-145.25;80.95
54146;BME280;65909;49.422;7.738;2023-02-02T01:09:11;77105.09;;;-145.25;80.86
54146;BME280;65909;49.422;7.738;2023-02-02T01:11:37;77093.06;;;-145.25;80.24
54146;BME280;65909;49.422;7.738;2023-02-02T01:14:02;77095.06;;;-145.25;80.72
54146;BME280;65909;49.422;7.738;2023-02-02T01:16:28;77103.09;;;-145.25;81.18
54146;BME280;65909;49.422;7.738;2023-02-02T01:18:53;77099.09;;;-145.25;81.32
54146;BME280;65909;49.422;7.738;2023-02-02T01:21:19;77101.09;;;-145.25;81.57
54146;BME280;65909;49.422;7.738;2023-02-02T01:23:45;77097.06;;;-145.25;82.23
54146;BME280;65909;49.422;7.738;2023-02-02T01:26:11;77099.09;;;-145.25;82.30
54146;BME280;65909;49.422;7.738;2023-02-02T01:28:37;77095.06;;;-145.25;82.75
54146;BME280;65909;49.422;7.738;2023-02-02T01:31:09;77095.06;;;-145.25;83.66
54146;BME280;65909;49.422;7.738;2023-02-02T01:33:35;77101.09;;;-145.25;85.20
54146;BME280;65909;49.422;7.738;2023-02-02T01:36:05;77119.13;;;-145.25;85.54
54146;BME280;65909;49.422;7.738;2023-02-02T01:38:30;77113.13;;;-145.25;86.29
54146;BME280;65909;49.422;7.738;2023-02-02T01:40:56;77119.13;;;-145.25;86.36
54146;BME280;65909;49.422;7.738;2023-02-02T01:46:09;77119.13;;;-145.25;86.67
54146;BME280;65909;49.422;7.738;2023-02-02T01:48:35;77129.16;;;-145.25;86.76
54146;BME280;65909;49.422;7.738;2023-02-02T01:51:07;77131.16;;;-145.25;86.49
54146;BME280;65909;49.422;7.738;2023-02-02T01:53:34;77133.16;;;-145.25;86.72
54146;BME280;65909;49.422;7.738;2023-02-02T01:56:02;77129.16;;;-145.25;86.81
54146;BME280;65909;49.422;7.738;2023-02-02T01:58:29;77131.16;;;-145.25;86.95
54146;BME280;65909;49.422;7.738;2023-02-02T02:00:57;77123.16;;;-145.25;86.41
54146;BME280;65909;49.422;7.738;2023-02-02T02:03:26;77133.16;;;-145.25;87.24
54146;BME280;65909;49.422;7.738;2023-02-02T02:06:30;77129.16;;;-145.25;86.90
54146;BME280;65909;49.422;7.738;2023-02-02T02:08:56;77127.16;;;-145.25;86.56
54146;BME280;65909;49.422;7.738;2023-02-02T02:11:24;77125.16;;;-145.25;86.61
54146;BME280;65909;49.422;7.738;2023-02-02T02:13:52;77117.13;;;-145.25;85.97
54146;BME280;65909;49.422;7.738;2023-02-02T02:19:54;77123.16;;;-145.25;86.58
54146;BME280;65909;49.422;7.738;2023-02-02T02:29:01;77123.16;;;-145.25;87.85
54146;BME280;65909;49.422;7.738;2023-02-02T02:34:11;77127.16;;;-145.25;88.33
54146;BME280;65909;49.422;7.738;2023-02-02T02:39:14;77113.13;;;-145.25;87.99
54146;BME280;65909;49.422;7.738;2023-02-02T02:41:45;77107.09;;;-145.25;87.55
54146;BME280;65909;49.422;7.738;2023-02-02T02:44:15;77111.13;;;-145.25;87.58
54146;BME280;65909;49.422;7.738;2023-02-02T02:46:41;77093.06;;;-145.25;87.01
54146;BME280;65909;49.422;7.738;2023-02-02T02:49:10;77095.06;;;-145.25;86.81
54146;BME280;65909;49.422;7.738;2023-02-02T02:51:50;77095.06;;;-145.25;87.21
54146;BME280;65909;49.422;7.738;2023-02-02T02:56:59;77103.09;;;-145.25;87.34
54146;BME280;65909;49.422;7.738;2023-02-02T02:59:58;77097.06;;;-145.25;87.30
54146;BME280;65909;49.422;7.738;2023-02-02T03:08:50;77099.09;;;-145.25;87.98
54146;BME280;65909;49.422;7.738;2023-02-02T03:10:55;77099.09;;;-145.25;88.26
54146;BME280;65909;49.422;7.738;2023-02-02T03:13:22;77099.09;;;-145.25;87.98
54146;BME280;65909;49.422;7.738;2023-02-02T03:15:47;77097.06;;;-145.25;88.69
54146;BME280;65909;49.422;7.738;2023-02-02T03:18:14;77097.06;;;-145.25;88.44
54146;BME280;65909;49.422;7.738;2023-02-02T03:20:42;77093.06;;;-145.25;88.40
54146;BME280;65909;49.422;7.738;2023-02-02T03:23:08;77099.09;;;-145.25;89.24
54146;BME280;65909;49.422;7.738;2023-02-02T03:25:33;77105.09;;;-145.25;89.56
54146;BME280;65909;49.422;7.738;2023-02-02T03:27:59;77109.09;;;-145.25;90.07
54146;BME280;65909;49.422;7.738;2023-02-02T03:30:25;77107.09;;;-145.25;90.19
54146;BME280;65909;49.422;7.738;2023-02-02T03:32:51;77111.13;;;-145.25;90.34
54146;BME280;65909;49.422;7.738;2023-02-02T03:35:16;77119.13;;;-145.25;90.19
54146;BME280;65909;49.422;7.738;2023-02-02T03:37:42;77123.16;;;-145.25;91.04
54146;BME280;65909;49.422;7.738;2023-02-02T03:40:08;77125.16;;;-145.25;90.95
54146;BME280;65909;49.422;7.738;2023-02-02T03:42:33;77121.13;;;-145.25;91.38
54146;BME280;65909;49.422;7.738;2023-02-02T03:44:59;77125.16;;;-145.25;91.45
54146;BME280;65909;49.422;7.738;2023-02-02T03:47:27;77125.16;;;-145.25;91.97
54146;BME280;65909;49.422;7.738;2023-02-02T03:49:52;77131.16;;;-145.25;91.89
54146;BME280;65909;49.422;7.738;2023-02-02T03:52:18;77127.16;;;-145.25;92.37
54146;BME280;65909;49.422;7.738;2023-02-02T03:54:43;77131.16;;;-145.25;92.33
54146;BME280;65909;49.422;7.738;2023-02-02T03:57:08;77123.16;;;-145.25;92.36
54146;BME280;65909;49.422;7.738;2023-02-02T03:59:34;77119.13;;;-145.25;92.05
54146;BME280;65909;49.422;7.738;2023-02-02T04:01:59;77121.13;;;-145.25;92.12
54146;BME280;65909;49.422;7.738;2023-02-02T04:04:24;77131.16;;;-145.25;91.64
54146;BME280;65909;49.422;7.738;2023-02-02T04:06:50;77139.19;;;-145.25;92.43
54146;BME280;65909;49.422;7.738;2023-02-02T04:09:15;77143.19;;;-145.25;92.33
54146;BME280;65909;49.422;7.738;2023-02-02T04:11:41;77141.19;;;-145.25;92.63
54146;BME280;65909;49.422;7.738;2023-02-02T04:14:06;77135.19;;;-145.25;92.61
54146;BME280;65909;49.422;7.738;2023-02-02T04:16:31;77151.22;;;-145.25;92.81
54146;BME280;65909;49.422;7.738;2023-02-02T04:18:59;77147.22;;;-145.25;92.89
54146;BME280;65909;49.422;7.738;2023-02-02T04:21:25;77151.22;;;-145.25;92.78
54146;BME280;65909;49.422;7.738;2023-02-02T04:23:50;77153.22;;;-145.25;92.71
54146;BME280;65909;49.422;7.738;2023-02-02T04:26:15;77155.22;;;-145.25;92.75
54146;BME280;65909;49.422;7.738;2023-02-02T04:28:41;77151.22;;;-145.25;92.20
54146;BME280;65909;49.422;7.738;2023-02-02T04:31:06;77155.22;;;-145.25;92.07
54146;BME280;65909;49.422;7.738;2023-02-02T04:33:33;77151.22;;;-145.25;91.92
54146;BME280;65909;49.422;7.738;2023-02-02T04:35:58;77149.22;;;-145.25;91.55
54146;BME280;65909;49.422;7.738;2023-02-02T04:38:23;77141.19;;;-145.25;90.82
54146;BME280;65909;49.422;7.738;2023-02-02T04:40:49;77137.19;;;-145.25;89.71
54146;BME280;65909;49.422;7.738;2023-02-02T04:43:14;77123.16;;;-145.25;88.30
54146;BME280;65909;49.422;7.738;2023-02-02T04:45:40;77127.16;;;-145.25;89.52
54146;BME280;65909;49.422;7.738;2023-02-02T04:48:06;77141.19;;;-145.25;90.11
54146;BME280;65909;49.422;7.738;2023-02-02T04:50:32;77147.22;;;-145.25;90.73
54146;BME280;65909;49.422;7.738;2023-02-02T04:52:57;77149.22;;;-145.25;90.88
54146;BME280;65909;49.422;7.738;2023-02-02T04:55:23;77153.22;;;-145.25;91.14
54146;BME280;65909;49.422;7.738;2023-02-02T04:57:49;77151.22;;;-145.25;90.96
54146;BME280;65909;49.422;7.738;2023-02-02T05:00:14;77147.22;;;-145.25;90.86
54146;BME280;65909;49.422;7.738;2023-02-02T05:02:41;77153.22;;;-145.25;91.19
54146;BME280;65909;49.422;7.738;2023-02-02T05:05:09;77151.22;;;-145.25;91.19
54146;BME280;65909;49.422;7.738;2023-02-02T05:07:35;77151.22;;;-145.25;91.23
54146;BME280;65909;49.422;7.738;2023-02-02T05:10:01;77153.22;;;-145.25;90.67
54146;BME280;65909;49.422;7.738;2023-02-02T05:12:27;77143.19;;;-145.25;90.50
54146;BME280;65909;49.422;7.738;2023-02-02T05:14:52;77151.22;;;-145.25;90.47
54146;BME280;65909;49.422;7.738;2023-02-02T05:17:18;77145.19;;;-145.25;90.15
54146;BME280;65909;49.422;7.738;2023-02-02T05:19:43;77137.19;;;-145.25;89.62
54146;BME280;65909;49.422;7.738;2023-02-02T05:22:08;77141.19;;;-145.25;89.59
54146;BME280;65909;49.422;7.738;2023-02-02T05:24:34;77131.16;;;-145.25;89.10
54146;BME280;65909;49.422;7.738;2023-02-02T05:26:59;77125.16;;;-145.25;88.49
54146;BME280;65909;49.422;7.738;2023-02-02T05:29:26;77137.19;;;-145.25;88.43
54146;BME280;65909;49.422;7.738;2023-02-02T05:31:52;77135.19;;;-145.25;88.71
54146;BME280;65909;49.422;7.738;2023-02-02T05:34:17;77131.16;;;-145.25;88.56
54146;BME280;65909;49.422;7.738;2023-02-02T05:36:43;77137.19;;;-145.25;88.67
54146;BME280;65909;49.422;7.738;2023-02-02T05:39:09;77139.19;;;-145.25;88.48
54146;BME280;65909;49.422;7.738;2023-02-02T05:41:34;77133.16;;;-145.25;87.88
54146;BME280;65909;49.422;7.738;2023-02-02T05:44:00;77131.16;;;-145.25;87.42
54146;BME280;65909;49.422;7.738;2023-02-02T05:46:25;77131.16;;;-145.25;87.73
54146;BME280;65909;49.422;7.738;2023-02-02T05:48:51;77127.16;;;-145.25;87.09
54146;BME280;65909;49.422;7.738;2023-02-02T05:51:38;77119.13;;;-145.25;87.04
54146;BME280;65909;49.422;7.738;2023-02-02T05:54:04;77119.13;;;-145.25;86.55
54146;BME280;65909;49.422;7.738;2023-02-02T05:56:30;77101.09;;;-145.25;86.39
54146;BME280;65909;49.422;7.738;2023-02-02T05:58:55;77109.09;;;-145.25;86.11
54146;BME280;65909;49.422;7.738;2023-02-02T06:01:21;77117.13;;;-145.25;86.84
54146;BME280;65909;49.422;7.738;2023-02-02T06:03:46;77117.13;;;-145.25;86.71
54146;BME280;65909;49.422;7.738;2023-02-02T06:06:12;77109.09;;;-145.25;86.50
54146;BME280;65909;49.422;7.738;2023-02-02T06:08:38;77109.09;;;-145.25;86.48
54146;BME280;65909;49.422;7.738;2023-02-02T06:11:15;77107.09;;;-145.25;85.90
54146;BME280;65909;49.422;7.738;2023-02-02T06:13:41;77109.09;;;-145.25;86.46
54146;BME280;65909;49.422;7.738;2023-02-02T06:16:07;77119.13;;;-145.25;86.58
54146;BME280;65909;49.422;7.738;2023-02-02T06:18:34;77117.13;;;-145.25;86.82
54146;BME280;65909;49.422;7.738;2023-02-02T06:21:01;77123.16;;;-145.25;86.19
54146;BME280;65909;49.422;7.738;2023-02-02T06:23:27;77125.16;;;-145.25;86.31
54146;BME280;65909;49.422;7.738;2023-02-02T06:25:52;77133.16;;;-145.25;86.64
54146;BME280;65909;49.422;7.738;2023-02-02T06:28:18;77127.16;;;-145.25;86.25
54146;BME280;65909;49.422;7.738;2023-02-02T06:30:43;77135.19;;;-145.25;86.54
54146;BME280;65909;49.422;7.738;2023-02-02T06:33:09;77143.19;;;-145.25;86.36
54146;BME280;65909;49.422;7.738;2023-02-02T06:35:34;77147.22;;;-145.25;87.12
54146;BME280;65909;49.422;7.738;2023-02-02T06:38:00;77145.19;;;-145.25;87.42
54146;BME280;65909;49.422;7.738;2023-02-02T06:40:26;77141.19;;;-145.25;87.13
54146;BME280;65909;49.422;7.738;2023-02-02T06:42:56;77145.19;;;-145.25;87.29
54146;BME280;65909;49.422;7.738;2023-02-02T06:45:21;77141.19;;;-145.25;87.13
54146;BME280;65909;49.422;7.738;2023-02-02T06:47:47;77137.19;;;-145.25;87.33
54146;BME280;65909;49.422;7.738;2023-02-02T06:50:12;77133.16;;;-145.25;87.34
54146;BME280;65909;49.422;7.738;2023-02-02T06:52:37;77131.16;;;-145.25;87.38
54146;BME280;65909;49.422;7.738;2023-02-02T06:55:03;77125.16;;;-145.25;87.06
54146;BME280;65909;49.422;7.738;2023-02-02T06:57:28;77129.16;;;-145.25;86.93
54146;BME280;65909;49.422;7.738;2023-02-02T06:59:54;77123.16;;;-145.25;86.79
54146;BME280;65909;49.422;7.738;2023-02-02T07:02:19;77135.19;;;-145.25;87.04
54146;BME280;65909;49.422;7.738;2023-02-02T07:04:47;77133.16;;;-145.25;87.12
54146;BME280;65909;49.422;7.738;2023-02-02T07:07:12;77131.16;;;-145.25;87.30
54146;BME280;65909;49.422;7.738;2023-02-02T07:09:38;77127.16;;;-145.25;86.97
54146;BME280;65909;49.422;7.738;2023-02-02T07:12:03;77119.13;;;-145.25;87.23
54146;BME280;65909;49.422;7.738;2023-02-02T07:14:28;77135.19;;;-145.25;87.18
54146;BME280;65909;49.422;7.738;2023-02-02T07:16:54;77123.16;;;-145.25;87.44
54146;BME280;65909;49.422;7.738;2023-02-02T07:19:19;77119.13;;;-145.25;87.08
54146;BME280;65909;49.422;7.738;2023-02-02T07:21:45;77125.16;;;-145.25;87.11
54146;BME280;65909;49.422;7.738;2023-02-02T07:24:10;77125.16;;;-145.25;86.75
54146;BME280;65909;49.422;7.738;2023-02-02T07:26:35;77121.13;;;-145.25;86.50
54146;BME280;65909;49.422;7.738;2023-02-02T07:29:01;77111.13;;;-145.25;85.92
54146;BME280;65909;49.422;7.738;2023-02-02T07:31:28;77103.09;;;-145.25;85.18
54146;BME280;65909;49.422;7.738;2023-02-02T07:33:54;77099.09;;;-145.25;85.06
54146;BME280;65909;49.422;7.738;2023-02-02T07:36:21;77097.06;;;-145.25;83.98
54146;BME280;65909;49.422;7.738;2023-02-02T07:38:49;77111.13;;;-145.25;84.13
54146;BME280;65909;49.422;7.738;2023-02-02T07:41:15;77109.09;;;-145.25;84.12
54146;BME280;65909;49.422;7.738;2023-02-02T07:43:41;77109.09;;;-145.25;83.86
54146;BME280;65909;49.422;7.738;2023-02-02T07:46:09;77123.16;;;-145.25;83.89
54146;BME280;65909;49.422;7.738;2023-02-02T07:48:35;77123.16;;;-145.25;84.10
54146;BME280;65909;49.422;7.738;2023-02-02T07:51:02;77123.16;;;-145.25;84.42
54146;BME280;65909;49.422;7.738;2023-02-02T07:53:28;77121.13;;;-145.25;84.23
54146;BME280;65909;49.422;7.738;2023-02-02T07:56:09;77113.13;;;-145.25;84.28
54146;BME280;65909;49.422;7.738;2023-02-02T07:58:36;77125.16;;;-145.25;84.14
54146;BME280;65909;49.422;7.738;2023-02-02T08:01:02;77119.13;;;-145.25;84.62
54146;BME280;65909;49.422;7.738;2023-02-02T08:03:29;77127.16;;;-145.25;84.69
54146;BME280;65909;49.422;7.738;2023-02-02T08:05:54;77121.13;;;-145.25;85.20
54146;BME280;65909;49.422;7.738;2023-02-02T08:08:20;77141.19;;;-145.25;85.18
54146;BME280;65909;49.422;7.738;2023-02-02T08:10:49;77141.19;;;-145.25;85.53
54146;BME280;65909;49.422;7.738;2023-02-02T08:13:15;77145.19;;;-145.25;85.66
54146;BME280;65909;49.422;7.738;2023-02-02T08:15:40;77139.19;;;-145.25;85.18
54146;BME280;65909;49.422;7.738;2023-02-02T08:18:05;77147.22;;;-145.25;85.13
54146;BME280;65909;49.422;7.738;2023-02-02T08:20:31;77141.19;;;-145.25;84.43
54146;BME280;65909;49.422;7.738;2023-02-02T08:22:56;77145.19;;;-145.25;84.48
54146;BME280;65909;49.422;7.738;2023-02-02T08:25:21;77155.22;;;-145.25;84.79
54146;BME280;65909;49.422;7.738;2023-02-02T08:27:47;77137.19;;;-145.25;84.65
54146;BME280;65909;49.422;7.738;2023-02-02T08:30:12;77133.16;;;-145.25;84.38
54146;BME280;65909;49.422;7.738;2023-02-02T08:32:38;77133.16;;;-145.25;83.74
54146;BME280;65909;49.422;7.738;2023-02-02T08:35:04;77135.19;;;-145.25;83.86
54146;BME280;65909;49.422;7.738;2023-02-02T08:37:30;77143.19;;;-145.25;84.25
54146;BME280;65909;49.422;7.738;2023-02-02T08:39:55;77135.19;;;-145.25;83.77
54146;BME280;65909;49.422;7.738;2023-02-02T08:42:20;77139.19;;;-145.25;83.50
54146;BME280;65909;49.422;7.738;2023-02-02T08:44:46;77127.16;;;-145.25;83.61
54146;BME280;65909;49.422;7.738;2023-02-02T08:47:11;77133.16;;;-145.25;83.57
54146;BME280;65909;49.422;7.738;2023-02-02T08:49:36;77137.19;;;-145.25;83.54
54146;BME280;65909;49.422;7.738;2023-02-02T08:52:02;77123.16;;;-145.25;82.56
54146;BME280;65909;49.422;7.738;2023-02-02T08:54:27;77137.19;;;-145.25;83.47
54146;BME280;65909;49.422;7.738;2023-02-02T08:56:53;77139.19;;;-145.25;83.81
54146;BME280;65909;49.422;7.738;2023-02-02T08:59:18;77149.22;;;-145.25;83.37
54146;BME280;65909;49.422;7.738;2023-02-02T09:01:44;77147.22;;;-145.25;83.04
54146;BME280;65909;49.422;7.738;2023-02-02T09:04:13;77137.19;;;-145.25;83.08
54146;BME280;65909;49.422;7.738;2023-02-02T09:06:40;77137.19;;;-145.25;82.85
54146;BME280;65909;49.422;7.738;2023-02-02T09:09:08;77133.16;;;-145.25;81.89
54146;BME280;65909;49.422;7.738;2023-02-02T09:11:35;77123.16;;;-145.25;81.99
54146;BME280;65909;49.422;7.738;2023-02-02T09:14:01;77125.16;;;-145.25;82.06
54146;BME280;65909;49.422;7.738;2023-02-02T09:16:28;77133.16;;;-145.25;82.07
54146;BME280;65909;49.422;7.738;2023-02-02T09:18:54;77131.16;;;-145.25;81.40
54146;BME280;65909;49.422;7.738;2023-02-02T09:21:20;77125.16;;;-145.25;81.12
54146;BME280;65909;49.422;7.738;2023-02-02T09:23:47;77123.16;;;-145.25;81.09
54146;BME280;65909;49.422;7.738;2023-02-02T09:26:22;77111.13;;;-145.25;80.54
54146;BME280;65909;49.422;7.738;2023-02-02T09:28:50;77119.13;;;-145.25;80.20
54146;BME280;65909;49.422;7.738;2023-02-02T09:31:16;77121.13;;;-145.25;80.57
54146;BME280;65909;49.422;7.738;2023-02-02T09:33:41;77111.13;;;-145.25;80.21
54146;BME280;65909;49.422;7.738;2023-02-02T09:36:15;77121.13;;;-145.25;80.49
54146;BME280;65909;49.422;7.738;2023-02-02T09:38:42;77137.19;;;-145.25;81.10
54146;BME280;65909;49.422;7.738;2023-02-02T09:41:31;77145.19;;;-145.25;81.03
54146;BME280;65909;49.422;7.738;2023-02-02T09:44:38;77143.19;;;-145.25;80.65
54146;BME280;65909;49.422;7.738;2023-02-02T09:47:40;77139.19;;;-145.25;81.02
54146;BME280;65909;49.422;7.738;2023-02-02T09:52:55;77147.22;;;-145.25;81.08
54146;BME280;65909;49.422;7.738;2023-02-02T09:55:42;77149.22;;;-145.25;80.94
54146;BME280;65909;49.422;7.738;2023-02-02T10:03:44;77155.22;;;-145.25;80.30
54146;BME280;65909;49.422;7.738;2023-02-02T10:06:37;77149.22;;;-145.25;80.21
54146;BME280;65909;49.422;7.738;2023-02-02T10:09:33;77153.22;;;-145.25;80.64
54146;BME280;65909;49.422;7.738;2023-02-02T10:13:08;77145.19;;;-145.25;80.00
54146;BME280;65909;49.422;7.738;2023-02-02T10:15:07;77139.19;;;-145.25;80.05
54146;BME280;65909;49.422;7.738;2023-02-02T10:22:39;77145.19;;;-145.25;80.14
54146;BME280;65909;49.422;7.738;2023-02-02T10:25:11;77147.22;;;-145.25;80.18
54146;BME280;65909;49.422;7.738;2023-02-02T10:27:38;77137.19;;;-145.25;79.70
54146;BME280;65909;49.422;7.738;2023-02-02T10:30:28;77147.22;;;-145.25;79.41
54146;BME280;65909;49.422;7.738;2023-02-02T10:33:20;77141.19;;;-145.25;79.35
54146;BME280;65909;49.422;7.738;2023-02-02T10:36:01;77133.16;;;-145.25;78.75
54146;BME280;65909;49.422;7.738;2023-02-02T10:38:44;77135.19;;;-145.25;78.85
54146;BME280;65909;49.422;7.738;2023-02-02T10:41:19;77125.16;;;-145.25;78.60
54146;BME280;65909;49.422;7.738;2023-02-02T10:55:00;77113.13;;;-145.25;77.68
54146;BME280;65909;49.422;7.738;2023-02-02T11:02:33;77117.13;;;-145.25;78.39
54146;BME280;65909;49.422;7.738;2023-02-02T11:04:59;77103.09;;;-145.25;77.79
54146;BME280;65909;49.422;7.738;2023-02-02T11:07:43;77117.13;;;-145.25;78.09
54146;BME280;65909;49.422;7.738;2023-02-02T11:10:08;77119.13;;;-145.25;78.03
54146;BME280;65909;49.422;7.738;2023-02-02T11:12:36;77109.09;;;-145.25;78.61
54146;BME280;65909;49.422;7.738;2023-02-02T11:15:43;77107.09;;;-145.25;77.76
54146;BME280;65909;49.422;7.738;2023-02-02T11:18:27;77111.13;;;-145.25;78.18
54146;BME280;65909;49.422;7.738;2023-02-02T11:20:53;77111.13;;;-145.25;78.33
54146;BME280;65909;49.422;7.738;2023-02-02T11:23:20;77121.13;;;-145.25;78.88
54146;BME280;65909;49.422;7.738;2023-02-02T11:25:56;77119.13;;;-145.25;79.23
54146;BME280;65909;49.422;7.738;2023-02-02T11:28:24;77113.13;;;-145.25;79.47
54146;BME280;65909;49.422;7.738;2023-02-02T11:30:54;77113.13;;;-145.25;79.38
54146;BME280;65909;49.422;7.738;2023-02-02T11:33:34;77127.16;;;-145.25;79.62
54146;BME280;65909;49.422;7.738;2023-02-02T11:36:20;77129.16;;;-145.25;80.38
54146;BME280;65909;49.422;7.738;2023-02-02T11:38:45;77127.16;;;-145.25;80.67
54146;BME280;65909;49.422;7.738;2023-02-02T11:41:11;77125.16;;;-145.25;80.67
54146;BME280;65909;49.422;7.738;2023-02-02T11:43:51;77127.16;;;-145.25;81.04
54146;BME280;65909;49.422;7.738;2023-02-02T11:46:22;77133.16;;;-145.25;82.10
54146;BME280;65909;49.422;7.738;2023-02-02T11:49:01;77131.16;;;-145.25;82.60
54146;BME280;65909;49.422;7.738;2023-02-02T11:51:28;77125.16;;;-145.25;82.25
54146;BME280;65909;49.422;7.738;2023-02-02T11:54:05;77131.16;;;-145.25;82.30
54146;BME280;65909;49.422;7.738;2023-02-02T11:56:33;77127.16;;;-145.25;82.41
54146;BME280;65909;49.422;7.738;2023-02-02T11:58:59;77131.16;;;-145.25;81.97
54146;BME280;65909;49.422;7.738;2023-02-02T12:01:34;77129.16;;;-145.25;82.41
54146;BME280;65909;49.422;7.738;2023-02-02T12:04:02;77135.19;;;-145.25;82.46
54146;BME280;65909;49.422;7.738;2023-02-02T12:08:59;77129.16;;;-145.25;82.15
54146;BME280;65909;49.422;7.738;2023-02-02T12:11:37;77139.19;;;-145.25;82.68
54146;BME280;65909;49.422;7.738;2023-02-02T12:22:42;77133.16;;;-145.25;82.07
54146;BME280;65909;49.422;7.738;2023-02-02T12:40:09;77109.09;;;-145.25;81.17
54146;BME280;65909;49.422;7.738;2023-02-02T12:56:15;77119.13;;;-145.25;81.16
54146;BME280;65909;49.422;7.738;2023-02-02T13:12:55;77105.09;;;-145.25;81.51
54146;BME280;65909;49.422;7.738;2023-02-02T13:15:27;77103.09;;;-145.25;81.89
54146;BME280;65909;49.422;7.738;2023-02-02T13:17:55;77099.09;;;-145.25;81.86
54146;BME280;65909;49.422;7.738;2023-02-02T13:20:45;77099.09;;;-145.25;81.07
54146;BME280;65909;49.422;7.738;2023-02-02T13:23:18;77095.06;;;-145.25;81.30
54146;BME280;65909;49.422;7.738;2023-02-02T13:25:49;77093.06;;;-145.25;80.30
54146;BME280;65909;49.422;7.738;2023-02-02T13:28:27;77093.06;;;-145.25;79.93
54146;BME280;65909;49.422;7.738;2023-02-02T13:30:56;77099.09;;;-145.25;80.44
54146;BME280;65909;49.422;7.738;2023-02-02T13:33:29;77089.06;;;-145.25;79.48
54146;BME280;65909;49.422;7.738;2023-02-02T13:36:17;77091.06;;;-145.25;79.57
54146;BME280;65909;49.422;7.738;2023-02-02T13:38:50;77091.06;;;-145.25;79.81
54146;BME280;65909;49.422;7.738;2023-02-02T13:41:18;77083.03;;;-145.25;79.75
54146;BME280;65909;49.422;7.738;2023-02-02T13:44:00;77085.03;;;-145.25;79.91
54146;BME280;65909;49.422;7.738;2023-02-02T13:46:38;77081.03;;;-145.25;79.70
54146;BME280;65909;49.422;7.738;2023-02-02T13:49:40;77085.03;;;-145.25;79.54
54146;BME280;65909;49.422;7.738;2023-02-02T13:55:35;77083.03;;;-145.25;79.13
54146;BME280;65909;49.422;7.738;2023-02-02T14:00:47;77079.03;;;-145.25;78.78
54146;BME280;65909;49.422;7.738;2023-02-02T14:08:32;77071.00;;;-145.25;77.99
54146;BME280;65909;49.422;7.738;2023-02-02T14:11:00;77075.03;;;-145.25;78.14
54146;BME280;65909;49.422;7.738;2023-02-02T14:13:52;77085.03;;;-145.25;77.96
54146;BME280;65909;49.422;7.738;2023-02-02T14:19:04;77075.03;;;-145.25;76.90
54146;BME280;65909;49.422;7.738;2023-02-02T14:23:57;77073.00;;;-145.25;77.00
54146;BME280;65909;49.422;7.738;2023-02-02T14:26:48;77085.03;;;-145.25;77.14
54146;BME280;65909;49.422;7.738;2023-02-02T14:37:16;77087.06;;;-145.25;76.65
54146;BME280;65909;49.422;7.738;2023-02-02T14:45:48;77093.06;;;-145.25;75.41
54146;BME280;65909;49.422;7.738;2023-02-02T14:48:30;77087.06;;;-145.25;74.86
54146;BME280;65909;49.422;7.738;2023-02-02T14:50:57;77075.03;;;-145.25;73.56
54146;BME280;65909;49.422;7.738;2023-02-02T14:53:31;77087.06;;;-145.25;73.81
54146;BME280;65909;49.422;7.738;2023-02-02T14:58:33;77089.06;;;-145.25;73.11
54146;BME280;65909;49.422;7.738;2023-02-02T15:14:32;77097.06;;;-145.25;74.33
54146;BME280;65909;49.422;7.738;2023-02-02T15:20:04;77139.19;;;-145.25;78.70
54146;BME280;65909;49.422;7.738;2023-02-02T15:22:35;77149.22;;;-145.25;80.12
54146;BME280;65909;49.422;7.738;2023-02-02T15:25:34;77157.22;;;-145.25;81.13
54146;BME280;65909;49.422;7.738;2023-02-02T15:30:49;77169.25;;;-145.25;81.26
54146;BME280;65909;49.422;7.738;2023-02-02T15:33:43;77167.25;;;-145.25;81.61